createdAt,value
2019-01-22T00:01:07.093Z,50.90
2019-01-22T00:03:38.605Z,50.90
2019-01-22T00:06:10.094Z,50.90
2019-01-22T00:08:41.700Z,50.90
2019-01-22T00:11:13.147Z,50.90
2019-01-22T00:13:44.612Z,50.90
2019-01-22T00:16:28.137Z,50.80
2019-01-22T00:18:59.599Z,50.80
2019-01-22T00:21:43.483Z,50.70
2019-01-22T00:24:15.047Z,50.70
2019-01-22T00:26:46.485Z,50.80
2019-01-22T00:29:18.932Z,50.90
2019-01-22T00:31:50.253Z,50.80
2019-01-22T00:34:21.828Z,50.90
2019-01-22T00:36:53.310Z,50.90
2019-01-22T00:39:25.326Z,51.00
2019-01-22T00:41:56.895Z,51.00
2019-01-22T00:47:07.201Z,51.00
2019-01-22T00:49:38.858Z,51.20
2019-01-22T00:52:10.409Z,51.20
2019-01-22T00:54:41.792Z,51.80
2019-01-22T00:57:13.223Z,51.20
2019-01-22T00:59:44.608Z,51.20
2019-01-22T01:02:17.658Z,51.20
2019-01-22T01:05:00.932Z,51.30
2019-01-22T01:07:32.499Z,51.30
2019-01-22T01:10:05.136Z,51.30
2019-01-22T01:12:46.784Z,51.30
2019-01-22T01:15:18.186Z,51.30
2019-01-22T01:17:49.671Z,51.50
2019-01-22T01:20:22.058Z,51.50
2019-01-22T01:23:05.256Z,51.50
2019-01-22T01:25:36.697Z,51.50
2019-01-22T01:28:08.141Z,51.50
2019-01-22T01:30:51.219Z,51.50
2019-01-22T01:33:22.699Z,51.50
2019-01-22T01:35:54.069Z,51.50
2019-01-22T01:38:25.469Z,51.50
2019-01-22T01:41:09.229Z,51.50
2019-01-22T01:43:41.531Z,51.40
2019-01-22T01:46:24.921Z,51.40
2019-01-22T01:48:56.628Z,51.30
2019-01-22T01:51:27.972Z,51.30
2019-01-22T01:54:13.958Z,51.30
2019-01-22T01:56:45.593Z,51.30
2019-01-22T01:59:16.981Z,51.30
2019-01-22T02:01:48.464Z,51.40
2019-01-22T02:04:19.863Z,51.50
2019-01-22T02:06:51.215Z,51.50
2019-01-22T02:09:22.724Z,51.50
2019-01-22T02:11:54.088Z,51.50
2019-01-22T02:14:32.215Z,51.40
2019-01-22T02:17:23.140Z,51.50
2019-01-22T02:20:13.376Z,51.40
2019-01-22T02:23:13.355Z,51.30
2019-01-22T02:26:00.717Z,51.30
2019-01-22T02:28:56.905Z,51.40
2019-01-22T02:31:56.748Z,51.30
2019-01-22T02:34:39.934Z,51.30
2019-01-22T02:37:32.218Z,51.30
2019-01-22T02:40:34.629Z,51.30
2019-01-22T02:43:58.949Z,51.30
2019-01-22T02:47:09.553Z,51.30
2019-01-22T02:49:55.106Z,51.30
2019-01-22T02:52:49.573Z,51.40
2019-01-22T02:55:52.031Z,51.40
2019-01-22T02:59:13.586Z,51.40
2019-01-22T03:02:37.597Z,51.40
2019-01-22T03:05:59.671Z,51.40
2019-01-22T03:08:43.077Z,51.40
2019-01-22T03:11:58.637Z,51.40
2019-01-22T03:14:41.786Z,51.40
2019-01-22T03:17:25.304Z,51.30
2019-01-22T03:20:25.166Z,51.30
2019-01-22T03:23:20.474Z,51.30
2019-01-22T03:26:19.405Z,51.30
2019-01-22T03:29:27.537Z,51.40
2019-01-22T03:32:10.348Z,51.50
2019-01-22T03:35:21.245Z,51.60
2019-01-22T03:38:32.407Z,51.70
2019-01-22T03:41:35.788Z,51.70
2019-01-22T03:44:32.938Z,51.70
2019-01-22T03:47:48.335Z,51.70
2019-01-22T03:51:09.757Z,51.70
2019-01-22T03:54:26.418Z,51.70
2019-01-22T03:57:48.793Z,51.70
2019-01-22T04:00:43.017Z,51.70
2019-01-22T04:03:14.502Z,51.80
2019-01-22T04:05:47.843Z,51.80
2019-01-22T04:08:19.285Z,51.80
2019-01-22T04:11:17.052Z,51.70
2019-01-22T04:13:48.521Z,51.70
2019-01-22T04:16:19.902Z,51.70
2019-01-22T04:18:52.536Z,51.70
2019-01-22T04:21:28.405Z,51.80
2019-01-22T04:24:28.862Z,51.80
2019-01-22T04:27:10.489Z,51.80
2019-01-22T04:29:56.992Z,51.90
2019-01-22T04:32:53.899Z,51.90
2019-01-22T04:35:53.947Z,51.90
2019-01-22T04:38:38.010Z,51.90
2019-01-22T04:41:34.993Z,51.90
2019-01-22T04:44:51.361Z,52.00
2019-01-22T04:47:55.698Z,52.00
2019-01-22T04:50:36.979Z,51.90
2019-01-22T04:53:44.807Z,51.80
2019-01-22T04:56:45.030Z,51.80
2019-01-22T05:00:15.589Z,51.80
2019-01-22T05:03:06.621Z,51.80
2019-01-22T05:06:00.100Z,51.70
2019-01-22T05:09:15.863Z,51.80
2019-01-22T05:12:20.270Z,51.80
2019-01-22T05:15:30.633Z,51.90
2019-01-22T05:18:32.249Z,51.80
2019-01-22T05:21:56.485Z,51.90
2019-01-22T05:24:40.678Z,51.90
2019-01-22T05:27:23.628Z,51.80
2019-01-22T05:30:12.658Z,51.80
2019-01-22T05:32:54.625Z,51.80
2019-01-22T05:35:52.761Z,51.80
2019-01-22T05:39:02.378Z,51.70
2019-01-22T05:42:01.734Z,51.70
2019-01-22T05:45:07.962Z,51.70
2019-01-22T05:47:51.388Z,51.70
2019-01-22T05:50:51.704Z,51.50
2019-01-22T05:53:35.014Z,51.60
2019-01-22T05:56:11.577Z,51.60
2019-01-22T05:58:54.906Z,51.70
2019-01-22T06:01:30.389Z,51.70
2019-01-22T06:04:13.994Z,51.80
2019-01-22T06:07:29.408Z,51.80
2019-01-22T06:10:12.726Z,51.90
2019-01-22T06:13:07.077Z,51.80
2019-01-22T06:16:14.223Z,51.90
2019-01-22T06:19:29.318Z,51.90
2019-01-22T06:22:38.986Z,51.80
2019-01-22T06:25:31.013Z,51.80
2019-01-22T06:28:43.710Z,51.80
2019-01-22T06:31:46.885Z,51.80
2019-01-22T06:35:00.295Z,51.80
2019-01-22T06:37:41.684Z,51.80
2019-01-22T06:40:37.996Z,51.70
2019-01-22T06:43:40.152Z,51.70
2019-01-22T06:46:22.709Z,51.80
2019-01-22T06:49:44.225Z,51.90
2019-01-22T06:52:41.652Z,52.00
2019-01-22T06:55:24.292Z,52.00
2019-01-22T06:58:07.228Z,52.10
2019-01-22T07:01:19.493Z,52.10
2019-01-22T07:04:13.764Z,52.20
2019-01-22T07:07:38.581Z,52.30
2019-01-22T07:10:35.220Z,52.20
2019-01-22T07:13:39.857Z,52.30
2019-01-22T07:16:22.815Z,52.30
2019-01-22T07:19:38.385Z,52.30
2019-01-22T07:22:49.962Z,52.50
2019-01-22T07:26:02.547Z,52.50
2019-01-22T07:28:49.489Z,52.60
2019-01-22T07:31:33.198Z,52.60
2019-01-22T07:34:32.940Z,52.60
2019-01-22T07:37:30.112Z,52.70
2019-01-22T07:40:32.145Z,52.60
2019-01-22T07:43:15.102Z,52.70
2019-01-22T07:46:22.781Z,52.60
2019-01-22T07:49:30.844Z,52.70
2019-01-22T07:52:13.610Z,52.60
2019-01-22T07:55:21.942Z,52.50
2019-01-22T07:58:34.569Z,52.70
2019-01-22T08:01:17.884Z,52.90
2019-01-22T08:04:39.729Z,52.80
2019-01-22T08:07:20.352Z,52.70
2019-01-22T08:10:08.995Z,53.40
2019-01-22T08:12:51.867Z,53.00
2019-01-22T08:15:34.769Z,53.00
2019-01-22T08:18:18.508Z,53.10
2019-01-22T08:21:01.810Z,53.20
2019-01-22T08:23:53.585Z,53.20
2019-01-22T08:27:01.730Z,53.30
2019-01-22T08:30:13.093Z,53.30
2019-01-22T08:33:33.706Z,53.20
2019-01-22T08:36:48.767Z,53.20
2019-01-22T08:39:47.790Z,53.20
2019-01-22T08:42:44.668Z,53.20
2019-01-22T08:45:39.699Z,53.20
2019-01-22T08:48:42.867Z,53.20
2019-01-22T08:51:32.274Z,53.20
2019-01-22T08:54:43.254Z,53.20
2019-01-22T08:58:01.870Z,53.20
2019-01-22T09:00:56.129Z,53.20
2019-01-22T09:03:48.716Z,53.20
2019-01-22T09:06:41.016Z,53.30
2019-01-22T09:09:25.173Z,53.40
2019-01-22T09:12:27.829Z,53.30
2019-01-22T09:15:11.337Z,53.40
2019-01-22T09:18:20.999Z,53.30
2019-01-22T09:21:39.395Z,53.40
2019-01-22T09:24:47.721Z,53.40
2019-01-22T09:27:39.717Z,53.30
2019-01-22T09:30:32.800Z,53.20
2019-01-22T09:33:35.155Z,53.20
2019-01-22T09:36:43.125Z,53.20
2019-01-22T09:39:15.884Z,53.10
2019-01-22T09:41:47.552Z,53.00
2019-01-22T09:44:19.952Z,52.90
2019-01-22T09:46:51.364Z,52.80
2019-01-22T09:49:22.835Z,52.70
2019-01-22T09:52:06.222Z,52.60
2019-01-22T09:54:37.681Z,52.50
2019-01-22T09:57:09.061Z,52.40
2019-01-22T09:59:40.461Z,52.30
2019-01-22T10:02:23.887Z,52.20
2019-01-22T10:04:55.392Z,52.20
2019-01-22T10:07:26.740Z,52.30
2019-01-22T10:09:58.176Z,52.20
2019-01-22T10:12:29.553Z,52.20
2019-01-22T10:15:00.976Z,52.30
2019-01-22T10:17:32.273Z,52.40
2019-01-22T10:20:04.837Z,52.50
2019-01-22T10:22:36.202Z,52.30
2019-01-22T10:25:08.437Z,52.20
2019-01-22T10:27:39.828Z,52.30
2019-01-22T10:30:13.315Z,52.10
2019-01-22T10:32:44.685Z,52.00
2019-01-22T10:35:16.297Z,51.80
2019-01-22T10:37:47.821Z,51.70
2019-01-22T10:40:20.796Z,51.70
2019-01-22T10:42:52.231Z,51.70
2019-01-22T10:45:23.710Z,51.70
2019-01-22T10:47:55.065Z,51.70
2019-01-22T10:50:27.436Z,51.70
2019-01-22T10:52:58.775Z,51.70
2019-01-22T10:55:36.240Z,51.80
2019-01-22T10:58:03.813Z,51.70
2019-01-22T11:00:35.428Z,51.70
2019-01-22T11:03:06.802Z,51.70
2019-01-22T11:05:40.458Z,51.70
2019-01-22T11:08:24.009Z,51.70
2019-01-22T11:10:55.397Z,51.60
2019-01-22T11:13:38.761Z,51.50
2019-01-22T11:16:10.184Z,51.50
2019-01-22T11:18:41.577Z,51.50
2019-01-22T11:21:24.771Z,51.50
2019-01-22T11:23:56.170Z,51.50
2019-01-22T11:26:27.627Z,51.60
2019-01-22T11:29:10.813Z,51.60
2019-01-22T11:31:42.208Z,51.40
2019-01-22T11:34:13.610Z,51.30
2019-01-22T11:36:48.088Z,51.40
2019-01-22T11:39:19.453Z,51.30
2019-01-22T11:41:50.870Z,51.20
2019-01-22T11:44:22.253Z,51.30
2019-01-22T11:47:05.217Z,51.30
2019-01-22T11:49:36.645Z,51.30
2019-01-22T11:52:08.067Z,51.30
2019-01-22T11:54:39.348Z,51.30
2019-01-22T11:57:10.937Z,51.20
2019-01-22T11:59:42.348Z,51.10
2019-01-22T12:02:13.821Z,50.90
2019-01-22T12:04:45.270Z,51.10
2019-01-22T12:07:16.689Z,51.20
2019-01-22T12:09:59.400Z,50.90
2019-01-22T12:12:30.944Z,50.80
2019-01-22T12:15:02.332Z,50.90
2019-01-22T12:17:33.908Z,50.90
2019-01-22T12:20:08.954Z,51.00
2019-01-22T12:22:40.418Z,50.90
2019-01-22T12:25:11.881Z,50.90
2019-01-22T12:27:55.408Z,50.70
2019-01-22T12:30:29.066Z,50.40
2019-01-22T12:33:00.456Z,50.60
2019-01-22T12:35:31.983Z,50.60
2019-01-22T12:38:03.359Z,50.80
2019-01-22T12:40:34.740Z,50.90
2019-01-22T12:43:06.732Z,51.10
2019-01-22T12:45:39.256Z,50.80
2019-01-22T12:48:10.840Z,50.70
2019-01-22T12:50:42.485Z,50.70
2019-01-22T12:53:14.290Z,50.70
2019-01-22T12:55:45.700Z,50.70
2019-01-22T12:58:17.153Z,50.50
2019-01-22T13:00:48.661Z,50.40
2019-01-22T13:03:20.011Z,50.30
2019-01-22T13:05:54.665Z,50.30
2019-01-22T13:08:26.101Z,50.10
2019-01-22T13:10:57.438Z,50.10
2019-01-22T13:13:28.826Z,50.00
2019-01-22T13:16:00.173Z,50.10
2019-01-22T13:18:31.665Z,50.20
2019-01-22T13:21:03.061Z,50.30
2019-01-22T13:23:34.478Z,50.20
2019-01-22T13:26:11.484Z,50.30
2019-01-22T13:28:39.229Z,50.20
2019-01-22T13:31:10.658Z,50.30
2019-01-22T13:33:42.064Z,50.40
2019-01-22T13:36:13.429Z,50.40
2019-01-22T13:41:08.224Z,50.20
2019-01-22T13:43:39.588Z,49.80
2019-01-22T13:46:11.098Z,49.70
2019-01-22T13:48:43.385Z,49.80
2019-01-22T13:51:14.823Z,49.60
2019-01-22T13:53:46.185Z,49.70
2019-01-22T13:56:18.678Z,49.80
2019-01-22T13:58:50.265Z,49.80
2019-01-22T14:01:21.689Z,49.90
2019-01-22T14:03:53.082Z,49.80
2019-01-22T14:06:24.473Z,49.80
2019-01-22T14:08:55.868Z,49.80
2019-01-22T14:11:39.393Z,49.80
2019-01-22T14:14:10.673Z,49.60
2019-01-22T14:16:42.101Z,49.80
2019-01-22T14:19:13.561Z,49.90
2019-01-22T14:21:44.942Z,50.00
2019-01-22T14:24:16.900Z,49.90
2019-01-22T14:26:48.887Z,50.00
2019-01-22T14:29:20.272Z,50.00
2019-01-22T14:32:03.373Z,50.00
2019-01-22T14:34:35.008Z,50.10
2019-01-22T14:37:06.462Z,50.10
2019-01-22T14:39:37.740Z,50.10
2019-01-22T14:42:09.138Z,50.10
2019-01-22T14:44:40.401Z,50.20
2019-01-22T14:47:11.814Z,50.20
2019-01-22T14:49:43.978Z,50.10
2019-01-22T14:52:15.403Z,50.20
2019-01-22T14:54:46.688Z,50.30
2019-01-22T14:57:21.487Z,50.40
2019-01-22T14:59:51.342Z,50.40
2019-01-22T15:02:34.989Z,50.40
2019-01-22T15:05:09.569Z,50.40
2019-01-22T15:07:41.094Z,50.40
2019-01-22T15:10:13.406Z,50.50
2019-01-22T15:12:45.904Z,50.60
2019-01-22T15:15:18.513Z,50.70
2019-01-22T15:18:02.427Z,50.70
2019-01-22T15:20:33.950Z,50.70
2019-01-22T15:23:18.768Z,50.60
2019-01-22T15:25:50.195Z,50.50
2019-01-22T15:28:21.617Z,50.50
2019-01-22T15:30:53.037Z,50.40
2019-01-22T15:33:24.428Z,50.20
2019-01-22T15:35:55.917Z,50.20
2019-01-22T15:38:27.474Z,50.30
2019-01-22T15:40:58.836Z,50.40
2019-01-22T15:43:30.278Z,50.30
2019-01-22T15:46:03.748Z,50.30
2019-01-22T15:48:35.222Z,50.40
2019-01-22T15:51:06.640Z,50.50
2019-01-22T15:53:38.862Z,50.60
2019-01-22T15:56:10.369Z,50.50
2019-01-22T15:58:41.761Z,50.70
2019-01-22T16:01:25.400Z,50.70
2019-01-22T16:04:08.917Z,50.80
2019-01-22T16:06:51.974Z,50.90
2019-01-22T16:09:23.542Z,50.90
2019-01-22T16:11:56.213Z,51.00
2019-01-22T16:14:39.965Z,51.10
2019-01-22T16:17:11.400Z,51.20
2019-01-22T16:19:42.812Z,51.30
2019-01-22T16:22:14.385Z,51.30
2019-01-22T16:24:58.243Z,51.40
2019-01-22T16:27:41.664Z,51.30
2019-01-22T16:30:15.934Z,51.20
2019-01-22T16:32:48.643Z,51.40
2019-01-22T16:35:23.008Z,51.30
2019-01-22T16:37:57.480Z,51.40
2019-01-22T16:40:40.777Z,51.30
2019-01-22T16:43:33.947Z,51.50
2019-01-22T16:46:05.696Z,51.60
2019-01-22T16:48:39.087Z,51.40
2019-01-22T16:51:10.869Z,51.50
2019-01-22T16:53:42.254Z,51.50
2019-01-22T16:56:13.692Z,51.50
2019-01-22T16:58:56.684Z,51.50
2019-01-22T17:01:39.690Z,51.30
2019-01-22T17:04:11.975Z,51.50
2019-01-22T17:06:55.545Z,51.60
2019-01-22T17:09:27.045Z,51.70
2019-01-22T17:12:10.214Z,51.70
2019-01-22T17:14:53.616Z,51.80
2019-01-22T17:17:25.474Z,51.80
2019-01-22T17:19:56.916Z,51.90
2019-01-22T17:22:40.742Z,51.90
2019-01-22T17:25:23.618Z,51.90
2019-01-22T17:27:55.297Z,51.90
2019-01-22T17:30:38.659Z,51.90
2019-01-22T17:33:29.564Z,51.90
2019-01-22T17:36:04.588Z,52.10
2019-01-22T17:38:56.824Z,52.10
2019-01-22T17:41:47.374Z,52.10
2019-01-22T17:44:18.784Z,52.00
2019-01-22T17:46:50.224Z,52.30
2019-01-22T17:49:22.270Z,52.30
2019-01-22T17:51:53.640Z,52.40
2019-01-22T17:54:25.149Z,52.40
2019-01-22T17:57:13.657Z,52.40
2019-01-22T17:59:53.121Z,52.50
2019-01-22T18:02:24.600Z,53.10
2019-01-22T18:04:56.028Z,52.70
2019-01-22T18:07:30.376Z,52.70
2019-01-22T18:10:13.850Z,52.80
2019-01-22T18:12:45.209Z,52.90
2019-01-22T18:15:17.661Z,53.40
2019-01-22T18:17:49.062Z,52.90
2019-01-22T18:20:32.438Z,53.00
2019-01-22T18:23:15.664Z,53.00
2019-01-22T18:25:47.169Z,53.00
2019-01-22T18:28:18.847Z,53.00
2019-01-22T18:30:50.282Z,53.00
2019-01-22T18:33:21.683Z,53.10
2019-01-22T18:35:54.146Z,53.10
2019-01-22T18:38:25.516Z,52.90
2019-01-22T18:40:57.017Z,52.90
2019-01-22T18:43:28.364Z,52.90
2019-01-22T18:46:00.098Z,52.90
2019-01-22T18:48:31.476Z,52.90
2019-01-22T18:51:15.768Z,53.00
2019-01-22T18:53:47.277Z,53.10
2019-01-22T18:56:30.074Z,53.20
2019-01-22T18:59:01.465Z,53.20
2019-01-22T19:01:44.814Z,53.20
2019-01-22T19:04:16.275Z,53.30
2019-01-22T19:06:47.695Z,53.20
2019-01-22T19:09:19.068Z,53.10
2019-01-22T19:11:50.530Z,53.20
2019-01-22T19:14:33.755Z,53.20
2019-01-22T19:17:05.140Z,53.10
2019-01-22T19:19:37.656Z,53.00
2019-01-22T19:22:09.097Z,53.00
2019-01-22T19:24:40.329Z,53.00
2019-01-22T19:27:11.740Z,53.00
2019-01-22T19:29:45.870Z,52.90
2019-01-22T19:32:17.312Z,52.80
2019-01-22T19:34:48.782Z,52.80
2019-01-22T19:37:20.162Z,52.80
2019-01-22T19:39:51.515Z,52.70
2019-01-22T19:42:35.106Z,52.60
2019-01-22T19:45:09.931Z,52.50
2019-01-22T19:47:41.467Z,52.50
2019-01-22T19:50:24.565Z,52.40
2019-01-22T19:52:55.971Z,52.40
2019-01-22T19:55:27.380Z,52.30
2019-01-22T19:57:58.801Z,52.30
2019-01-22T20:00:32.601Z,52.20
2019-01-22T20:03:05.601Z,52.20
2019-01-22T20:05:37.945Z,52.10
2019-01-22T20:08:20.741Z,52.10
2019-01-22T20:11:04.110Z,52.10
2019-01-22T20:13:35.535Z,52.10
2019-01-22T20:16:06.927Z,52.10
2019-01-22T20:18:38.559Z,52.20
2019-01-22T20:21:22.185Z,52.20
2019-01-22T20:23:53.620Z,52.10
2019-01-22T20:26:37.221Z,52.20
2019-01-22T20:29:20.920Z,52.20
2019-01-22T20:32:04.438Z,52.30
2019-01-22T20:34:47.629Z,52.20
2019-01-22T20:37:30.549Z,52.20
2019-01-22T20:40:13.625Z,52.30
2019-01-22T20:42:56.353Z,52.30
2019-01-22T20:45:39.857Z,52.30
2019-01-22T20:48:26.124Z,52.30
2019-01-22T20:51:08.830Z,52.40
2019-01-22T20:53:51.602Z,52.40
2019-01-22T20:56:34.972Z,52.40
2019-01-22T20:59:18.360Z,52.40
2019-01-22T21:01:49.668Z,52.50
2019-01-22T21:04:21.036Z,52.50
2019-01-22T21:06:52.536Z,52.50
2019-01-22T21:09:43.077Z,52.60
2019-01-22T21:12:14.467Z,52.40
2019-01-22T21:14:45.785Z,52.60
2019-01-22T21:17:17.205Z,52.60
2019-01-22T21:19:48.924Z,52.50
2019-01-22T21:22:20.434Z,52.50
2019-01-22T21:25:11.617Z,52.50
2019-01-22T21:28:01.300Z,52.50
2019-01-22T21:30:39.634Z,52.50
2019-01-22T21:33:23.122Z,52.50
2019-01-22T21:36:06.233Z,52.40
2019-01-22T21:38:49.498Z,52.40
2019-01-22T21:41:33.052Z,52.50
2019-01-22T21:44:16.105Z,52.50
2019-01-22T21:47:01.122Z,52.50
2019-01-22T21:49:44.184Z,52.50
2019-01-22T21:52:27.412Z,52.60
2019-01-22T21:55:10.660Z,52.60
2019-01-22T21:57:53.364Z,52.60
2019-01-22T22:00:36.923Z,52.60
2019-01-22T22:03:18.521Z,52.70
2019-01-22T22:06:02.024Z,52.60
2019-01-22T22:08:45.199Z,52.60
2019-01-22T22:11:28.109Z,52.60
2019-01-22T22:14:11.305Z,52.50
2019-01-22T22:16:54.503Z,52.40
2019-01-22T22:19:37.285Z,52.30
2019-01-22T22:22:20.166Z,52.30
2019-01-22T22:25:03.450Z,52.10
2019-01-22T22:27:47.030Z,52.10
2019-01-22T22:30:29.964Z,52.00
2019-01-22T22:33:13.170Z,52.00
2019-01-22T22:35:56.615Z,51.90
2019-01-22T22:38:40.142Z,51.80
2019-01-22T22:41:23.174Z,51.80
2019-01-22T22:44:06.121Z,51.80
2019-01-22T22:46:49.008Z,51.80
2019-01-22T22:49:32.277Z,51.80
2019-01-22T22:52:15.206Z,51.80
2019-01-22T22:54:58.644Z,51.90
2019-01-22T22:57:42.239Z,51.90
2019-01-22T23:00:46.135Z,52.00
2019-01-22T23:03:41.475Z,52.00
2019-01-22T23:06:24.637Z,52.00
2019-01-22T23:09:10.822Z,52.10
2019-01-22T23:11:53.778Z,52.20
2019-01-22T23:14:36.521Z,52.30
2019-01-22T23:17:19.594Z,52.20
2019-01-22T23:20:02.681Z,52.30
2019-01-22T23:22:46.737Z,52.50
2019-01-22T23:25:29.669Z,52.50
2019-01-22T23:28:14.113Z,52.50
2019-01-22T23:30:57.493Z,52.60
2019-01-22T23:33:40.465Z,52.50
2019-01-22T23:36:23.877Z,52.70
2019-01-22T23:39:07.186Z,52.70
2019-01-22T23:41:50.700Z,52.70
2019-01-22T23:44:33.771Z,52.80
2019-01-22T23:47:17.374Z,52.90
2019-01-22T23:50:00.325Z,52.90
2019-01-22T23:52:43.516Z,53.00
2019-01-22T23:55:27.097Z,53.00
2019-01-22T23:58:10.361Z,53.00
